createdAt,value
2019-03-16T00:00:40.760Z,99648.36
2019-03-16T00:03:09.070Z,99651.42
2019-03-16T00:05:36.145Z,99641.83
2019-03-16T00:08:03.576Z,99671.06
2019-03-16T00:10:30.730Z,99659.70
2019-03-16T00:12:58.037Z,99658.16
2019-03-16T00:15:25.163Z,99653.20
2019-03-16T00:17:52.352Z,99667.14
2019-03-16T00:20:19.430Z,99660.79
2019-03-16T00:22:46.939Z,99677.70
2019-03-16T00:25:14.332Z,99666.21
2019-03-16T00:27:41.380Z,99661.36
2019-03-16T00:30:08.925Z,99661.00
2019-03-16T00:32:36.133Z,99663.24
2019-03-16T00:35:03.517Z,99674.27
2019-03-16T00:37:30.752Z,99675.20
2019-03-16T00:39:58.907Z,99670.46
2019-03-16T00:42:26.074Z,99675.78
2019-03-16T00:44:53.485Z,99680.28
2019-03-16T00:47:21.102Z,99675.22
2019-03-16T00:49:48.233Z,99682.78
2019-03-16T00:52:15.355Z,99683.96
2019-03-16T00:54:42.448Z,99692.11
2019-03-16T00:57:11.268Z,99687.73
2019-03-16T00:59:38.576Z,99690.58
2019-03-16T01:02:06.816Z,99694.48
2019-03-16T01:04:33.966Z,99692.02
2019-03-16T01:07:01.025Z,99696.97
2019-03-16T01:09:28.080Z,99702.06
2019-03-16T01:11:55.138Z,99695.33
2019-03-16T01:14:22.204Z,99701.23
2019-03-16T01:16:49.312Z,99706.20
2019-03-16T01:19:16.414Z,99706.67
2019-03-16T01:21:43.546Z,99710.70
2019-03-16T01:24:10.602Z,99704.91
2019-03-16T01:26:37.749Z,99713.05
2019-03-16T01:29:05.136Z,99713.99
2019-03-16T01:31:32.207Z,99704.42
2019-03-16T01:33:59.357Z,99703.36
2019-03-16T01:36:26.780Z,99698.16
2019-03-16T01:38:55.060Z,99699.58
2019-03-16T01:41:22.105Z,99690.36
2019-03-16T01:43:49.361Z,99703.84
2019-03-16T01:46:16.415Z,99704.31
2019-03-16T01:48:43.451Z,99704.65
2019-03-16T01:51:10.966Z,99707.72
2019-03-16T01:53:38.053Z,99706.08
2019-03-16T01:56:05.627Z,99701.47
2019-03-16T01:58:32.678Z,99711.75
2019-03-16T02:00:59.755Z,99704.41
2019-03-16T02:03:26.778Z,99700.15
2019-03-16T02:05:55.908Z,99703.28
2019-03-16T02:08:22.981Z,99702.43
2019-03-16T02:10:50.087Z,99712.46
2019-03-16T02:13:17.725Z,99713.84
2019-03-16T02:15:44.769Z,99700.71
2019-03-16T02:18:12.928Z,99717.89
2019-03-16T02:20:40.514Z,99718.91
2019-03-16T02:23:07.756Z,99709.34
2019-03-16T02:25:34.779Z,99709.16
2019-03-16T02:28:01.887Z,99700.66
2019-03-16T02:30:29.099Z,99683.63
2019-03-16T02:33:11.582Z,99700.20
2019-03-16T02:35:25.166Z,99715.56
2019-03-16T02:37:52.249Z,99719.75
2019-03-16T02:40:19.587Z,99726.11
2019-03-16T02:42:46.675Z,99744.61
2019-03-16T02:45:13.720Z,99749.03
2019-03-16T02:47:41.012Z,99752.83
2019-03-16T02:50:08.550Z,99744.30
2019-03-16T02:52:35.588Z,99746.80
2019-03-16T02:55:03.590Z,99756.25
2019-03-16T02:57:30.621Z,99759.66
2019-03-16T02:59:57.721Z,99739.80
2019-03-16T03:02:24.887Z,99735.69
2019-03-16T03:04:51.922Z,99790.66
2019-03-16T03:07:18.976Z,99777.48
2019-03-16T03:09:45.988Z,99768.81
2019-03-16T03:12:13.069Z,99744.69
2019-03-16T03:14:41.754Z,99773.75
2019-03-16T03:17:08.777Z,99758.63
2019-03-16T03:19:35.805Z,99765.76
2019-03-16T03:22:02.871Z,99768.59
2019-03-16T03:24:31.039Z,99782.03
2019-03-16T03:26:58.643Z,99759.50
2019-03-16T03:29:25.705Z,99771.99
2019-03-16T03:31:52.824Z,99795.75
2019-03-16T03:34:21.122Z,99781.33
2019-03-16T03:36:48.200Z,99782.55
2019-03-16T03:39:15.254Z,99803.06
2019-03-16T03:41:42.299Z,99781.64
2019-03-16T03:44:09.441Z,99777.02
2019-03-16T03:46:37.669Z,99806.19
2019-03-16T03:49:05.416Z,99794.84
2019-03-16T03:51:32.556Z,99795.98
2019-03-16T03:53:59.689Z,99790.43
2019-03-16T03:56:26.721Z,99784.23
2019-03-16T03:58:53.982Z,99785.06
2019-03-16T04:01:22.818Z,99781.19
2019-03-16T04:03:49.854Z,99791.72
2019-03-16T04:06:16.923Z,99791.16
2019-03-16T04:08:44.063Z,99785.92
2019-03-16T04:11:11.540Z,99781.96
2019-03-16T04:13:38.640Z,99772.78
2019-03-16T04:16:05.691Z,99786.06
2019-03-16T04:18:33.716Z,99784.25
2019-03-16T04:21:00.801Z,99782.77
2019-03-16T04:23:27.816Z,99778.52
2019-03-16T04:25:54.871Z,99781.00
2019-03-16T04:28:21.959Z,99782.27
2019-03-16T04:30:49.023Z,99773.37
2019-03-16T04:33:16.046Z,99774.39
2019-03-16T04:35:43.073Z,99777.36
2019-03-16T04:38:10.134Z,99778.08
2019-03-16T04:40:38.956Z,99785.24
2019-03-16T04:43:06.019Z,99780.42
2019-03-16T04:45:34.465Z,99780.99
2019-03-16T04:48:01.499Z,99778.28
2019-03-16T04:50:28.866Z,99778.75
2019-03-16T04:52:56.372Z,99777.53
2019-03-16T04:55:23.493Z,99781.47
2019-03-16T04:57:50.568Z,99787.34
2019-03-16T05:00:18.005Z,99789.67
2019-03-16T05:02:47.036Z,99781.45
2019-03-16T05:05:17.812Z,99786.59
2019-03-16T05:07:45.250Z,99782.45
2019-03-16T05:10:12.277Z,99790.43
2019-03-16T05:12:39.301Z,99789.38
2019-03-16T05:15:06.990Z,99788.17
2019-03-16T05:17:34.535Z,99797.30
2019-03-16T05:20:01.659Z,99793.52
2019-03-16T05:22:28.743Z,99794.89
2019-03-16T05:24:55.779Z,99809.78
2019-03-16T05:27:22.858Z,99804.22
2019-03-16T05:29:51.930Z,99797.77
2019-03-16T05:32:18.987Z,99800.98
2019-03-16T05:34:56.441Z,99805.73
2019-03-16T05:37:16.855Z,99794.88
2019-03-16T05:39:43.874Z,99808.36
2019-03-16T05:42:10.947Z,99805.77
2019-03-16T05:44:38.963Z,99796.45
2019-03-16T05:47:06.064Z,99813.00
2019-03-16T05:49:33.141Z,99796.27
2019-03-16T05:52:00.469Z,99796.76
2019-03-16T05:54:27.542Z,99801.95
2019-03-16T05:56:54.573Z,99801.02
2019-03-16T05:59:21.730Z,99812.22
2019-03-16T06:01:48.774Z,99818.71
2019-03-16T06:04:15.866Z,99821.31
2019-03-16T06:06:43.322Z,99822.73
2019-03-16T06:09:12.171Z,99827.09
2019-03-16T06:11:39.248Z,99827.25
2019-03-16T06:14:06.627Z,99801.27
2019-03-16T06:16:33.660Z,99835.38
2019-03-16T06:19:00.761Z,99830.69
2019-03-16T06:21:27.791Z,99837.27
2019-03-16T06:23:55.198Z,99842.50
2019-03-16T06:26:22.563Z,99837.30
2019-03-16T06:28:49.626Z,99832.64
2019-03-16T06:31:16.943Z,99841.20
2019-03-16T06:33:44.012Z,99833.19
2019-03-16T06:36:11.277Z,99825.53
2019-03-16T06:38:38.722Z,99832.79
2019-03-16T06:41:05.997Z,99830.28
2019-03-16T06:43:33.020Z,99836.45
2019-03-16T06:46:00.463Z,99841.97
2019-03-16T06:48:27.502Z,99832.17
2019-03-16T06:50:54.840Z,99834.16
2019-03-16T06:53:22.366Z,99833.83
2019-03-16T06:55:52.781Z,99798.37
2019-03-16T06:58:19.885Z,99844.94
2019-03-16T07:00:46.964Z,99830.56
2019-03-16T07:03:14.305Z,99832.48
2019-03-16T07:05:43.355Z,99831.39
2019-03-16T07:08:10.498Z,99829.50
2019-03-16T07:10:38.037Z,99823.08
2019-03-16T07:13:06.202Z,99828.98
2019-03-16T07:15:40.693Z,99825.98
2019-03-16T07:18:08.835Z,99830.82
2019-03-16T07:20:35.910Z,99830.44
2019-03-16T07:23:03.036Z,99840.37
2019-03-16T07:25:31.253Z,99851.97
2019-03-16T07:27:58.419Z,99842.91
2019-03-16T07:30:25.519Z,99846.11
2019-03-16T07:32:52.901Z,99852.09
2019-03-16T07:35:19.939Z,99857.75
2019-03-16T07:37:47.199Z,99855.03
2019-03-16T07:40:14.770Z,99842.20
2019-03-16T07:42:41.824Z,99864.19
2019-03-16T07:45:09.166Z,99864.42
2019-03-16T07:47:36.801Z,99853.81
2019-03-16T07:50:04.570Z,99869.67
2019-03-16T07:52:31.660Z,99857.71
2019-03-16T07:55:01.783Z,99869.66
2019-03-16T07:57:39.972Z,99864.23
2019-03-16T08:00:01.950Z,99875.22
2019-03-16T08:02:29.190Z,99873.45
2019-03-16T08:04:56.373Z,99862.15
2019-03-16T08:07:23.455Z,99875.55
2019-03-16T08:09:50.555Z,99876.20
2019-03-16T08:12:19.487Z,99874.69
2019-03-16T08:14:46.542Z,99880.99
2019-03-16T08:17:13.632Z,99882.23
2019-03-16T08:19:41.204Z,99887.02
2019-03-16T08:22:08.291Z,99877.77
2019-03-16T08:24:35.345Z,99888.97
2019-03-16T08:27:02.987Z,99872.73
2019-03-16T08:29:30.144Z,99890.34
2019-03-16T08:31:57.220Z,99891.75
2019-03-16T08:34:24.600Z,99891.80
2019-03-16T08:36:52.162Z,99866.75
2019-03-16T08:39:19.190Z,99887.34
2019-03-16T08:41:46.712Z,99885.61
2019-03-16T08:44:13.774Z,99881.84
2019-03-16T08:46:40.832Z,99894.27
2019-03-16T08:49:07.900Z,99881.39
2019-03-16T08:51:35.062Z,99896.68
2019-03-16T08:54:02.297Z,99889.02
2019-03-16T08:56:29.333Z,99887.02
2019-03-16T08:58:56.374Z,99882.28
2019-03-16T09:01:23.437Z,99890.66
2019-03-16T09:03:50.886Z,99888.03
2019-03-16T09:06:18.215Z,99884.75
2019-03-16T09:08:45.265Z,99884.92
2019-03-16T09:11:12.711Z,99885.48
2019-03-16T09:13:39.800Z,99871.73
2019-03-16T09:16:07.027Z,99877.27
2019-03-16T09:18:34.088Z,99897.39
2019-03-16T09:21:01.276Z,99892.93
2019-03-16T09:23:28.328Z,99899.80
2019-03-16T09:25:57.632Z,99883.81
2019-03-16T09:28:25.990Z,99887.02
2019-03-16T09:30:53.212Z,99892.09
2019-03-16T09:33:20.725Z,99892.56
2019-03-16T09:35:47.851Z,99896.09
2019-03-16T09:38:15.220Z,99894.80
2019-03-16T09:40:42.489Z,99892.56
2019-03-16T09:43:09.548Z,99894.33
2019-03-16T09:45:36.609Z,99900.98
2019-03-16T09:48:03.783Z,99898.27
2019-03-16T09:50:30.849Z,99901.37
2019-03-16T09:52:57.936Z,99894.63
2019-03-16T09:55:25.195Z,99897.39
2019-03-16T09:57:52.232Z,99907.22
2019-03-16T10:00:19.305Z,99910.64
2019-03-16T10:02:46.783Z,99908.59
2019-03-16T10:05:14.018Z,99871.05
2019-03-16T10:07:41.099Z,99910.80
2019-03-16T10:10:11.498Z,99902.83
2019-03-16T10:12:38.535Z,99900.18
2019-03-16T10:15:05.919Z,99904.11
2019-03-16T10:17:33.091Z,99908.65
2019-03-16T10:20:01.515Z,99906.87
2019-03-16T10:22:30.066Z,99904.34
2019-03-16T10:24:57.404Z,99906.18
2019-03-16T10:27:24.981Z,99910.31
2019-03-16T10:29:52.059Z,99900.88
2019-03-16T10:32:19.469Z,99892.59
2019-03-16T10:34:46.917Z,99903.98
2019-03-16T10:37:15.166Z,99898.08
2019-03-16T10:39:42.257Z,99886.92
2019-03-16T10:42:09.714Z,99879.23
2019-03-16T10:44:36.776Z,99886.75
2019-03-16T10:47:04.023Z,99854.63
2019-03-16T10:49:31.061Z,99867.27
2019-03-16T10:51:58.088Z,99873.34
2019-03-16T10:54:25.209Z,99868.48
2019-03-16T10:56:52.585Z,99855.00
2019-03-16T10:59:19.656Z,99860.53
2019-03-16T11:01:48.976Z,99853.90
2019-03-16T11:04:17.258Z,99852.12
2019-03-16T11:06:45.029Z,99859.68
2019-03-16T11:09:14.184Z,99855.09
2019-03-16T11:11:41.290Z,99858.77
2019-03-16T11:14:08.370Z,99856.13
2019-03-16T11:16:58.310Z,99845.67
2019-03-16T11:19:28.459Z,99856.20
2019-03-16T11:21:57.138Z,99844.86
2019-03-16T11:24:26.562Z,99842.52
2019-03-16T11:27:17.472Z,99849.98
2019-03-16T11:29:45.802Z,99830.39
2019-03-16T11:32:13.928Z,99828.01
2019-03-16T11:34:48.331Z,99832.38
2019-03-16T11:37:40.071Z,99837.57
2019-03-16T11:40:10.284Z,99831.94
2019-03-16T11:42:43.390Z,99833.80
2019-03-16T11:45:21.488Z,99835.41
2019-03-16T11:47:50.665Z,99833.56
2019-03-16T11:50:22.444Z,99827.41
2019-03-16T11:52:53.526Z,99802.53
2019-03-16T11:55:22.395Z,99824.05
2019-03-16T11:57:52.706Z,99812.30
2019-03-16T12:00:20.672Z,99800.24
2019-03-16T12:02:52.784Z,99747.62
2019-03-16T12:05:30.166Z,99809.63
2019-03-16T12:07:58.356Z,99794.11
2019-03-16T12:10:26.531Z,99802.63
2019-03-16T12:12:56.001Z,99807.53
2019-03-16T12:15:28.234Z,99788.48
2019-03-16T12:17:55.661Z,99806.42
2019-03-16T12:20:24.145Z,99813.66
2019-03-16T12:22:55.769Z,99803.27
2019-03-16T12:25:27.130Z,99806.96
2019-03-16T12:27:56.758Z,99802.22
2019-03-16T12:30:37.259Z,99795.28
2019-03-16T12:33:05.515Z,99776.58
2019-03-16T12:35:32.991Z,99800.28
2019-03-16T12:38:08.064Z,99779.37
2019-03-16T12:40:40.910Z,99793.36
2019-03-16T12:43:08.311Z,99788.83
2019-03-16T12:45:38.337Z,99795.10
2019-03-16T12:48:05.418Z,99788.14
2019-03-16T12:50:34.581Z,99767.77
2019-03-16T12:53:02.682Z,99786.84
2019-03-16T12:55:30.246Z,99771.70
2019-03-16T12:57:58.122Z,99783.09
2019-03-16T13:00:25.661Z,99782.27
2019-03-16T13:02:52.730Z,99776.36
2019-03-16T13:05:19.837Z,99788.31
2019-03-16T13:07:47.326Z,99773.39
2019-03-16T13:10:14.652Z,99770.31
2019-03-16T13:12:41.944Z,99785.23
2019-03-16T13:15:09.902Z,99765.23
2019-03-16T13:17:37.219Z,99769.38
2019-03-16T13:20:04.798Z,99761.66
2019-03-16T13:22:33.862Z,99757.30
2019-03-16T13:25:00.941Z,99764.52
2019-03-16T13:27:28.243Z,99753.25
2019-03-16T13:29:59.184Z,99751.31
2019-03-16T13:32:24.612Z,99739.67
2019-03-16T13:34:53.602Z,99768.75
2019-03-16T13:37:21.419Z,99771.27
2019-03-16T13:39:49.093Z,99740.39
2019-03-16T13:42:16.181Z,99745.60
2019-03-16T13:44:43.339Z,99780.83
2019-03-16T13:47:10.394Z,99759.31
2019-03-16T13:49:37.481Z,99772.92
2019-03-16T13:52:06.071Z,99774.56
2019-03-16T13:54:33.446Z,99768.78
2019-03-16T13:57:01.462Z,99764.41
2019-03-16T13:59:28.898Z,99756.59
2019-03-16T14:01:55.959Z,99750.45
2019-03-16T14:04:23.121Z,99751.03
2019-03-16T14:06:50.635Z,99755.88
2019-03-16T14:09:18.313Z,99736.83
2019-03-16T14:11:45.380Z,99754.58
2019-03-16T14:14:14.964Z,99743.80
2019-03-16T14:16:42.301Z,99752.17
2019-03-16T14:19:09.362Z,99752.55
2019-03-16T14:21:36.911Z,99746.73
2019-03-16T14:24:04.258Z,99742.97
2019-03-16T14:26:32.927Z,99742.14
2019-03-16T14:29:00.177Z,99734.74
2019-03-16T14:31:27.657Z,99727.27
2019-03-16T14:33:54.693Z,99724.95
2019-03-16T14:36:22.206Z,99729.69
2019-03-16T14:38:49.455Z,99730.16
2019-03-16T14:41:16.528Z,99725.33
2019-03-16T14:43:43.588Z,99731.23
2019-03-16T14:46:10.654Z,99730.77
2019-03-16T14:48:37.713Z,99731.49
2019-03-16T14:51:04.796Z,99726.39
2019-03-16T14:53:32.251Z,99731.38
2019-03-16T14:55:59.409Z,99721.92
2019-03-16T14:58:26.569Z,99722.77
2019-03-16T15:00:53.654Z,99702.70
2019-03-16T15:03:20.921Z,99695.94
2019-03-16T15:05:48.007Z,99702.95
2019-03-16T15:08:15.419Z,99708.12
2019-03-16T15:10:44.869Z,99694.23
2019-03-16T15:13:11.966Z,99697.58
2019-03-16T15:15:39.186Z,99699.11
2019-03-16T15:18:06.452Z,99682.78
2019-03-16T15:20:35.073Z,99675.92
2019-03-16T15:23:04.464Z,99680.06
2019-03-16T15:25:31.583Z,99677.80
2019-03-16T15:27:58.764Z,99685.98
2019-03-16T15:30:25.869Z,99677.78
2019-03-16T15:32:53.050Z,99670.58
2019-03-16T15:35:20.302Z,99685.48
2019-03-16T15:37:47.377Z,99686.18
2019-03-16T15:40:14.648Z,99686.52
2019-03-16T15:42:42.269Z,99667.71
2019-03-16T15:45:12.112Z,99685.91
2019-03-16T15:47:39.220Z,99669.01
2019-03-16T15:50:06.619Z,99665.58
2019-03-16T15:52:33.920Z,99670.08
2019-03-16T15:55:01.354Z,99665.01
2019-03-16T15:57:28.692Z,99664.73
2019-03-16T15:59:55.759Z,99667.81
2019-03-16T16:02:24.643Z,99661.71
2019-03-16T16:04:51.765Z,99668.67
2019-03-16T16:07:19.143Z,99657.08
2019-03-16T16:09:48.787Z,99659.91
2019-03-16T16:12:15.944Z,99657.81
2019-03-16T16:14:42.987Z,99662.41
2019-03-16T16:17:11.175Z,99649.05
2019-03-16T16:19:38.258Z,99657.55
2019-03-16T16:22:05.381Z,99651.67
2019-03-16T16:24:34.608Z,99643.16
2019-03-16T16:27:01.740Z,99636.06
2019-03-16T16:29:28.936Z,99629.08
2019-03-16T16:31:57.658Z,99633.13
2019-03-16T16:34:27.275Z,99626.95
2019-03-16T16:36:54.276Z,99615.73
2019-03-16T16:39:21.589Z,99626.38
2019-03-16T16:41:48.697Z,99614.78
2019-03-16T16:44:15.747Z,99617.95
2019-03-16T16:46:43.828Z,99614.55
2019-03-16T16:49:10.986Z,99611.83
2019-03-16T16:51:38.177Z,99603.05
2019-03-16T16:54:05.261Z,99605.41
2019-03-16T16:56:32.467Z,99595.59
2019-03-16T16:58:59.750Z,99601.59
2019-03-16T17:01:29.576Z,99597.14
2019-03-16T17:03:57.518Z,99595.00
2019-03-16T17:06:24.961Z,99588.60
2019-03-16T17:08:52.025Z,99586.48
2019-03-16T17:11:20.286Z,99585.88
2019-03-16T17:13:48.007Z,99582.72
2019-03-16T17:16:15.222Z,99580.69
2019-03-16T17:18:42.519Z,99584.47
2019-03-16T17:21:10.014Z,99583.78
2019-03-16T17:23:37.078Z,99585.66
2019-03-16T17:26:04.190Z,99573.30
2019-03-16T17:28:32.991Z,99577.11
2019-03-16T17:31:02.342Z,99575.57
2019-03-16T17:33:29.435Z,99580.20
2019-03-16T17:35:58.544Z,99575.72
2019-03-16T17:38:25.660Z,99580.00
2019-03-16T17:40:53.238Z,99568.05
2019-03-16T17:43:20.371Z,99568.88
2019-03-16T17:45:47.603Z,99562.86
2019-03-16T17:48:16.190Z,99563.44
2019-03-16T17:50:43.246Z,99560.03
2019-03-16T17:53:10.695Z,99555.68
2019-03-16T17:55:38.008Z,99552.11
2019-03-16T17:58:05.467Z,99552.20
2019-03-16T18:00:32.497Z,99545.00
2019-03-16T18:02:59.613Z,99544.65
2019-03-16T18:05:26.714Z,99550.19
2019-03-16T18:07:54.017Z,99554.77
2019-03-16T18:10:21.611Z,99551.34
2019-03-16T18:12:48.660Z,99542.59
2019-03-16T18:15:16.035Z,99541.89
2019-03-16T18:17:43.121Z,99533.12
2019-03-16T18:20:11.078Z,99529.80
2019-03-16T18:22:38.161Z,99531.71
2019-03-16T18:25:06.436Z,99533.70
2019-03-16T18:27:33.607Z,99529.13
2019-03-16T18:30:01.203Z,99521.57
2019-03-16T18:32:28.317Z,99523.92
2019-03-16T18:34:55.365Z,99514.37
2019-03-16T18:37:22.466Z,99513.41
2019-03-16T18:39:49.779Z,99520.87
2019-03-16T18:42:16.879Z,99516.08
2019-03-16T18:44:43.917Z,99512.89
2019-03-16T18:47:11.849Z,99514.69
2019-03-16T18:49:38.941Z,99508.28
2019-03-16T18:52:06.046Z,99501.18
2019-03-16T18:54:33.430Z,99503.89
2019-03-16T18:57:00.847Z,99498.56
2019-03-16T18:59:27.905Z,99498.06
2019-03-16T19:01:54.966Z,99498.05
2019-03-16T19:04:22.150Z,99489.66
2019-03-16T19:06:49.244Z,99475.94
2019-03-16T19:09:16.415Z,99485.39
2019-03-16T19:11:43.963Z,99482.80
2019-03-16T19:14:11.956Z,99484.70
2019-03-16T19:16:39.037Z,99483.63
2019-03-16T19:19:06.521Z,99483.27
2019-03-16T19:21:33.623Z,99482.20
2019-03-16T19:24:00.742Z,99484.19
2019-03-16T19:26:30.118Z,99486.09
2019-03-16T19:28:58.962Z,99480.44
2019-03-16T19:31:26.063Z,99477.16
2019-03-16T19:33:53.560Z,99486.24
2019-03-16T19:36:20.834Z,99483.55
2019-03-16T19:38:47.996Z,99469.41
2019-03-16T19:41:16.929Z,99468.47
2019-03-16T19:43:44.483Z,99464.44
2019-03-16T19:46:11.574Z,99462.11
2019-03-16T19:48:38.836Z,99459.27
2019-03-16T19:51:06.401Z,99443.67
2019-03-16T19:53:33.472Z,99442.03
2019-03-16T19:56:00.771Z,99436.13
2019-03-16T19:58:27.894Z,99436.93
2019-03-16T20:00:55.028Z,99438.47
2019-03-16T20:03:22.148Z,99430.68
2019-03-16T20:05:49.987Z,99418.16
2019-03-16T20:08:17.185Z,99417.92
2019-03-16T20:10:46.859Z,99431.73
2019-03-16T20:13:15.107Z,99437.30
2019-03-16T20:15:44.028Z,99432.70
2019-03-16T20:18:11.262Z,99434.70
2019-03-16T20:20:38.699Z,99421.22
2019-03-16T20:23:07.755Z,99420.77
2019-03-16T20:25:34.917Z,99424.42
2019-03-16T20:28:02.346Z,99417.44
2019-03-16T20:30:30.724Z,99421.89
2019-03-16T20:33:03.821Z,99421.66
2019-03-16T20:35:29.874Z,99417.49
2019-03-16T20:37:57.080Z,99412.33
2019-03-16T20:40:25.106Z,99401.20
2019-03-16T20:42:52.499Z,99404.23
2019-03-16T20:45:19.902Z,99397.39
2019-03-16T20:47:49.010Z,99399.65
2019-03-16T20:50:16.504Z,99402.75
2019-03-16T20:52:46.073Z,99400.02
2019-03-16T20:55:13.394Z,99398.72
2019-03-16T20:57:40.835Z,99397.40
2019-03-16T21:00:08.800Z,99396.41
2019-03-16T21:02:36.221Z,99384.58
2019-03-16T21:05:05.556Z,99384.95
2019-03-16T21:07:34.219Z,99385.30
2019-03-16T21:10:01.766Z,99386.68
2019-03-16T21:12:31.361Z,99389.09
2019-03-16T21:14:58.706Z,99393.03
2019-03-16T21:17:26.895Z,99389.02
2019-03-16T21:19:54.758Z,99386.80
2019-03-16T21:22:34.634Z,99379.89
2019-03-16T21:24:52.645Z,99383.66
2019-03-16T21:27:20.192Z,99384.19
2019-03-16T21:29:50.512Z,99380.23
2019-03-16T21:32:21.393Z,99380.09
2019-03-16T21:34:52.937Z,99377.03
2019-03-16T21:37:22.405Z,99373.48
2019-03-16T21:39:52.701Z,99377.55
2019-03-16T21:42:25.911Z,99364.58
2019-03-16T21:44:58.299Z,99363.50
2019-03-16T21:47:26.940Z,99364.33
2019-03-16T21:49:59.046Z,99365.56
2019-03-16T21:52:27.005Z,99360.27
2019-03-16T21:55:00.505Z,99359.52
2019-03-16T21:57:33.091Z,99348.13
2019-03-16T22:00:06.534Z,99348.03
2019-03-16T22:02:44.407Z,99347.56
2019-03-16T22:05:14.246Z,99337.27
2019-03-16T22:07:49.390Z,99341.16
2019-03-16T22:10:19.993Z,99335.17
2019-03-16T22:12:50.574Z,99334.56
2019-03-16T22:15:20.364Z,99332.06
2019-03-16T22:17:48.109Z,99327.97
2019-03-16T22:20:19.882Z,99319.83
2019-03-16T22:22:48.278Z,99316.75
2019-03-16T22:25:15.639Z,99311.51
2019-03-16T22:27:47.177Z,99308.58
2019-03-16T22:30:16.871Z,99302.15
2019-03-16T22:32:45.597Z,99297.89
2019-03-16T22:35:14.104Z,99296.08
2019-03-16T22:37:41.623Z,99290.56
2019-03-16T22:40:09.417Z,99285.02
2019-03-16T22:42:39.206Z,99285.63
2019-03-16T22:45:11.246Z,99280.95
2019-03-16T22:47:38.890Z,99268.75
2019-03-16T22:50:06.732Z,99281.62
2019-03-16T22:52:34.127Z,99274.81
2019-03-16T22:55:02.669Z,99272.23
2019-03-16T22:57:29.802Z,99277.47
2019-03-16T22:59:56.995Z,99274.73
2019-03-16T23:02:24.080Z,99276.02
2019-03-16T23:04:51.302Z,99273.22
2019-03-16T23:07:18.806Z,99266.41
2019-03-16T23:09:45.847Z,99261.80
2019-03-16T23:12:13.023Z,99266.47
2019-03-16T23:14:40.118Z,99259.33
2019-03-16T23:17:07.445Z,99253.91
2019-03-16T23:19:34.886Z,99250.61
2019-03-16T23:22:03.039Z,99242.84
2019-03-16T23:24:30.050Z,99236.66
2019-03-16T23:26:57.309Z,99233.97
2019-03-16T23:29:24.559Z,99232.34
2019-03-16T23:31:51.633Z,99230.23
2019-03-16T23:34:19.657Z,99228.11
2019-03-16T23:36:47.332Z,99225.80
2019-03-16T23:39:14.438Z,99220.34
2019-03-16T23:41:43.427Z,99210.58
2019-03-16T23:44:10.902Z,99204.95
2019-03-16T23:46:38.097Z,99203.06
2019-03-16T23:49:05.181Z,99206.33
2019-03-16T23:51:32.378Z,99204.92
2019-03-16T23:53:59.439Z,99203.41
2019-03-16T23:56:26.512Z,99194.92
2019-03-16T23:58:54.020Z,99197.84
